createdAt,value
2019-02-25T00:01:10.898Z,100797.20
2019-02-25T00:03:46.076Z,100795.84
2019-02-25T00:06:14.751Z,100784.56
2019-02-25T00:08:43.407Z,100778.45
2019-02-25T00:11:12.077Z,100781.25
2019-02-25T00:13:40.807Z,100778.08
2019-02-25T00:16:10.182Z,100769.02
2019-02-25T00:18:38.957Z,100771.00
2019-02-25T00:21:07.683Z,100764.86
2019-02-25T00:23:36.683Z,100751.50
2019-02-25T00:26:05.340Z,100751.50
2019-02-25T00:28:34.047Z,100748.02
2019-02-25T00:31:02.706Z,100743.55
2019-02-25T00:33:31.947Z,100745.87
2019-02-25T00:36:00.621Z,100750.86
2019-02-25T00:38:29.933Z,100748.98
2019-02-25T00:40:58.873Z,100757.92
2019-02-25T00:43:27.811Z,100758.95
2019-02-25T00:45:56.804Z,100761.66
2019-02-25T00:48:26.003Z,100760.77
2019-02-25T00:50:54.906Z,100749.04
2019-02-25T00:53:23.899Z,100747.94
2019-02-25T00:55:53.086Z,100752.68
2019-02-25T00:58:22.073Z,100764.33
2019-02-25T01:00:50.729Z,100767.05
2019-02-25T01:03:19.556Z,100763.36
2019-02-25T01:05:48.648Z,100758.13
2019-02-25T01:08:17.313Z,100759.75
2019-02-25T01:10:46.376Z,100768.87
2019-02-25T01:13:15.313Z,100760.05
2019-02-25T01:15:44.721Z,100756.49
2019-02-25T01:18:13.898Z,100754.89
2019-02-25T01:20:42.564Z,100741.94
2019-02-25T01:23:11.494Z,100738.20
2019-02-25T01:25:40.162Z,100739.66
2019-02-25T01:28:09.487Z,100746.25
2019-02-25T01:30:38.670Z,100740.95
2019-02-25T01:33:07.453Z,100737.95
2019-02-25T01:35:37.479Z,100738.55
2019-02-25T01:38:06.307Z,100729.44
2019-02-25T01:40:34.977Z,100735.56
2019-02-25T01:43:03.714Z,100728.33
2019-02-25T01:45:32.392Z,100723.64
2019-02-25T01:48:01.590Z,100723.94
2019-02-25T01:50:30.277Z,100716.17
2019-02-25T01:52:59.204Z,100717.31
2019-02-25T01:55:27.859Z,100716.23
2019-02-25T01:57:56.511Z,100709.77
2019-02-25T02:00:25.250Z,100712.92
2019-02-25T02:02:54.150Z,100708.54
2019-02-25T02:05:24.562Z,100701.82
2019-02-25T02:07:53.281Z,100699.03
2019-02-25T02:10:22.022Z,100696.80
2019-02-25T02:12:50.663Z,100697.38
2019-02-25T02:15:19.511Z,100694.66
2019-02-25T02:17:48.200Z,100700.09
2019-02-25T02:20:17.117Z,100698.21
2019-02-25T02:22:45.756Z,100695.14
2019-02-25T02:25:14.795Z,100707.05
2019-02-25T02:27:45.191Z,100706.14
2019-02-25T02:30:16.080Z,100711.28
2019-02-25T02:32:45.060Z,100708.25
2019-02-25T02:35:13.727Z,100709.45
2019-02-25T02:37:42.526Z,100705.39
2019-02-25T02:40:11.354Z,100713.38
2019-02-25T02:42:41.319Z,100720.02
2019-02-25T02:45:17.109Z,100726.36
2019-02-25T02:47:58.652Z,100724.07
2019-02-25T02:50:27.399Z,100728.75
2019-02-25T02:52:56.846Z,100724.55
2019-02-25T02:55:25.493Z,100724.54
2019-02-25T02:57:54.825Z,100721.24
2019-02-25T03:00:23.813Z,100717.45
2019-02-25T03:02:52.820Z,100712.86
2019-02-25T03:05:21.501Z,100715.47
2019-02-25T03:07:50.484Z,100714.63
2019-02-25T03:10:19.546Z,100717.66
2019-02-25T03:12:51.050Z,100713.83
2019-02-25T03:15:21.327Z,100716.30
2019-02-25T03:17:50.367Z,100715.80
2019-02-25T03:20:19.174Z,100718.80
2019-02-25T03:22:47.881Z,100709.02
2019-02-25T03:25:17.713Z,100707.66
2019-02-25T03:27:46.731Z,100706.30
2019-02-25T03:30:17.695Z,100710.30
2019-02-25T03:32:46.872Z,100709.31
2019-02-25T03:35:15.608Z,100708.59
2019-02-25T03:37:44.653Z,100713.22
2019-02-25T03:40:15.412Z,100714.89
2019-02-25T03:42:44.447Z,100718.51
2019-02-25T03:45:14.821Z,100717.30
2019-02-25T03:47:43.831Z,100716.70
2019-02-25T03:50:12.901Z,100716.39
2019-02-25T03:52:41.832Z,100721.31
2019-02-25T03:55:12.802Z,100716.47
2019-02-25T03:57:41.879Z,100719.26
2019-02-25T04:00:16.619Z,100725.89
2019-02-25T04:02:45.407Z,100729.45
2019-02-25T04:05:14.483Z,100733.52
2019-02-25T04:07:43.308Z,100732.75
2019-02-25T04:10:12.387Z,100731.89
2019-02-25T04:12:41.458Z,100731.16
2019-02-25T04:15:12.543Z,100736.40
2019-02-25T04:17:41.599Z,100728.47
2019-02-25T04:20:12.385Z,100726.22
2019-02-25T04:22:41.358Z,100718.80
2019-02-25T04:25:10.417Z,100714.73
2019-02-25T04:27:39.411Z,100720.01
2019-02-25T04:30:10.787Z,100718.95
2019-02-25T04:32:39.750Z,100713.38
2019-02-25T04:35:09.469Z,100721.23
2019-02-25T04:37:38.239Z,100729.98
2019-02-25T04:40:08.334Z,100730.22
2019-02-25T04:42:37.585Z,100734.50
2019-02-25T04:45:08.753Z,100744.45
2019-02-25T04:47:37.709Z,100740.98
2019-02-25T04:50:07.521Z,100736.75
2019-02-25T04:52:36.514Z,100739.27
2019-02-25T04:55:05.708Z,100738.22
2019-02-25T04:57:34.365Z,100736.31
2019-02-25T05:00:03.417Z,100735.74
2019-02-25T05:02:32.078Z,100734.05
2019-02-25T05:05:00.863Z,100733.88
2019-02-25T05:07:29.748Z,100733.60
2019-02-25T05:09:58.421Z,100736.31
2019-02-25T05:12:28.038Z,100737.67
2019-02-25T05:14:57.031Z,100739.63
2019-02-25T05:17:25.703Z,100738.39
2019-02-25T05:19:54.356Z,100738.86
2019-02-25T05:22:23.361Z,100734.32
2019-02-25T05:24:52.013Z,100734.88
2019-02-25T05:27:20.692Z,100735.92
2019-02-25T05:29:51.780Z,100730.47
2019-02-25T05:32:20.438Z,100731.65
2019-02-25T05:34:49.093Z,100732.08
2019-02-25T05:37:17.792Z,100730.09
2019-02-25T05:39:46.690Z,100738.77
2019-02-25T05:42:15.368Z,100735.83
2019-02-25T05:44:44.540Z,100736.26
2019-02-25T05:47:13.520Z,100743.36
2019-02-25T05:49:42.428Z,100745.20
2019-02-25T05:52:11.819Z,100746.84
2019-02-25T05:54:40.742Z,100743.10
2019-02-25T05:57:09.716Z,100745.20
2019-02-25T05:59:38.391Z,100737.94
2019-02-25T06:02:07.077Z,100734.80
2019-02-25T06:04:36.210Z,100733.55
2019-02-25T06:07:05.478Z,100725.77
2019-02-25T06:09:35.717Z,100728.91
2019-02-25T06:12:04.794Z,100723.01
2019-02-25T06:14:33.781Z,100728.18
2019-02-25T06:17:02.705Z,100726.14
2019-02-25T06:19:31.965Z,100734.36
2019-02-25T06:22:00.646Z,100732.08
2019-02-25T06:24:30.090Z,100728.13
2019-02-25T06:26:59.029Z,100722.53
2019-02-25T06:29:27.927Z,100728.84
2019-02-25T06:31:56.647Z,100726.84
2019-02-25T06:34:25.573Z,100731.66
2019-02-25T06:36:54.515Z,100731.84
2019-02-25T06:39:23.769Z,100729.55
2019-02-25T06:41:52.658Z,100738.61
2019-02-25T06:44:21.811Z,100733.80
2019-02-25T06:46:50.542Z,100732.02
2019-02-25T06:49:19.921Z,100734.12
2019-02-25T06:51:48.609Z,100725.73
2019-02-25T06:54:17.279Z,100735.72
2019-02-25T06:56:46.611Z,100735.51
2019-02-25T06:59:15.546Z,100737.79
2019-02-25T07:01:44.475Z,100741.28
2019-02-25T07:04:50.760Z,100744.69
2019-02-25T07:07:25.754Z,100746.39
2019-02-25T07:10:13.732Z,100748.10
2019-02-25T07:12:49.905Z,100748.53
2019-02-25T07:15:43.674Z,100756.94
2019-02-25T07:18:23.163Z,100757.63
2019-02-25T07:21:01.696Z,100750.77
2019-02-25T07:23:54.669Z,100752.17
2019-02-25T07:26:30.271Z,100756.61
2019-02-25T07:29:08.892Z,100766.39
2019-02-25T07:31:56.842Z,100769.89
2019-02-25T07:34:34.050Z,100770.42
2019-02-25T07:37:20.280Z,100774.22
2019-02-25T07:40:06.768Z,100776.83
2019-02-25T07:42:53.179Z,100779.34
2019-02-25T07:45:37.297Z,100785.97
2019-02-25T07:48:11.409Z,100790.72
2019-02-25T07:50:48.076Z,100791.27
2019-02-25T07:53:23.154Z,100789.45
2019-02-25T07:56:05.112Z,100790.59
2019-02-25T07:58:42.719Z,100789.32
2019-02-25T08:01:29.132Z,100799.13
2019-02-25T08:04:20.434Z,100804.55
2019-02-25T08:07:08.401Z,100810.13
2019-02-25T08:10:03.022Z,100800.99
2019-02-25T08:12:38.490Z,100805.73
2019-02-25T08:15:17.631Z,100800.39
2019-02-25T08:18:08.704Z,100798.90
2019-02-25T08:21:06.071Z,100798.63
2019-02-25T08:23:55.084Z,100792.39
2019-02-25T08:26:45.546Z,100796.73
2019-02-25T08:29:26.826Z,100796.45
2019-02-25T08:32:21.820Z,100795.45
2019-02-25T08:35:11.369Z,100790.88
2019-02-25T08:38:05.724Z,100796.56
2019-02-25T08:41:05.701Z,100804.61
2019-02-25T08:43:44.724Z,100795.48
2019-02-25T08:46:24.464Z,100806.97
2019-02-25T08:49:15.098Z,100797.84
2019-02-25T08:51:44.194Z,100802.05
2019-02-25T08:54:12.998Z,100802.47
2019-02-25T08:56:41.974Z,100804.81
2019-02-25T08:59:13.717Z,100805.24
2019-02-25T09:01:42.690Z,100799.35
2019-02-25T09:04:11.353Z,100793.91
2019-02-25T09:06:40.310Z,100797.23
2019-02-25T09:09:09.362Z,100800.92
2019-02-25T09:11:38.170Z,100802.08
2019-02-25T09:14:07.143Z,100808.42
2019-02-25T09:16:36.153Z,100812.25
2019-02-25T09:19:05.138Z,100807.89
2019-02-25T09:21:34.129Z,100816.43
2019-02-25T09:24:03.045Z,100824.80
2019-02-25T09:26:32.415Z,100819.55
2019-02-25T09:29:01.716Z,100819.17
2019-02-25T09:31:30.401Z,100825.87
2019-02-25T09:33:59.393Z,100823.39
2019-02-25T09:36:28.051Z,100818.09
2019-02-25T09:38:56.917Z,100811.95
2019-02-25T09:41:29.851Z,100806.64
2019-02-25T09:43:56.997Z,100811.47
2019-02-25T09:46:25.671Z,100817.72
2019-02-25T09:48:54.413Z,100821.38
2019-02-25T09:51:23.366Z,100815.77
2019-02-25T09:53:52.325Z,100816.06
2019-02-25T09:56:21.002Z,100815.28
2019-02-25T09:58:51.929Z,100815.95
2019-02-25T10:01:20.348Z,100816.02
2019-02-25T10:03:49.003Z,100816.34
2019-02-25T10:06:17.679Z,100817.02
2019-02-25T10:08:46.657Z,100812.73
2019-02-25T10:11:15.328Z,100814.20
2019-02-25T10:13:43.991Z,100816.17
2019-02-25T10:16:12.673Z,100809.42
2019-02-25T10:18:41.579Z,100808.17
2019-02-25T10:21:10.321Z,100821.98
2019-02-25T10:23:40.511Z,100813.30
2019-02-25T10:26:09.570Z,100813.30
2019-02-25T10:28:38.235Z,100809.29
2019-02-25T10:31:06.897Z,100811.70
2019-02-25T10:33:35.781Z,100814.22
2019-02-25T10:36:04.764Z,100812.09
2019-02-25T10:38:33.918Z,100808.56
2019-02-25T10:41:02.612Z,100811.35
2019-02-25T10:43:33.902Z,100809.47
2019-02-25T10:46:02.454Z,100805.93
2019-02-25T10:48:31.143Z,100808.97
2019-02-25T10:50:59.813Z,100801.02
2019-02-25T10:53:28.515Z,100794.14
2019-02-25T10:56:08.603Z,100799.65
2019-02-25T10:58:37.631Z,100795.77
2019-02-25T11:01:08.455Z,100796.59
2019-02-25T11:03:37.104Z,100798.82
2019-02-25T11:06:05.951Z,100797.71
2019-02-25T11:08:35.289Z,100785.56
2019-02-25T11:11:13.052Z,100780.88
2019-02-25T11:13:41.723Z,100776.98
2019-02-25T11:16:11.971Z,100766.25
2019-02-25T11:18:41.337Z,100765.41
2019-02-25T11:21:10.674Z,100764.27
2019-02-25T11:23:39.971Z,100764.78
2019-02-25T11:26:09.771Z,100763.10
2019-02-25T11:28:40.733Z,100763.93
2019-02-25T11:31:11.488Z,100753.41
2019-02-25T11:33:40.146Z,100747.84
2019-02-25T11:36:10.448Z,100754.18
2019-02-25T11:38:41.680Z,100749.50
2019-02-25T11:41:11.320Z,100747.74
2019-02-25T11:43:40.591Z,100739.50
2019-02-25T11:46:10.060Z,100737.34
2019-02-25T11:48:38.756Z,100729.83
2019-02-25T11:51:07.747Z,100724.44
2019-02-25T11:53:36.450Z,100723.21
2019-02-25T11:56:05.376Z,100721.77
2019-02-25T11:58:34.596Z,100717.63
2019-02-25T12:01:04.317Z,100714.84
2019-02-25T12:03:33.072Z,100708.25
2019-02-25T12:06:01.743Z,100707.02
2019-02-25T12:08:30.743Z,100692.85
2019-02-25T12:10:59.669Z,100690.06
2019-02-25T12:13:28.893Z,100683.63
2019-02-25T12:15:57.585Z,100688.09
2019-02-25T12:18:26.758Z,100677.14
2019-02-25T12:20:55.432Z,100679.40
2019-02-25T12:23:24.457Z,100675.33
2019-02-25T12:25:53.427Z,100671.18
2019-02-25T12:28:22.124Z,100658.85
2019-02-25T12:30:50.803Z,100651.91
2019-02-25T12:33:19.805Z,100654.23
2019-02-25T12:35:49.005Z,100662.97
2019-02-25T12:38:17.705Z,100658.82
2019-02-25T12:40:46.871Z,100650.59
2019-02-25T12:43:15.640Z,100638.94
2019-02-25T12:45:44.328Z,100632.78
2019-02-25T12:48:13.044Z,100628.05
2019-02-25T12:50:41.985Z,100632.89
2019-02-25T12:53:10.733Z,100633.69
2019-02-25T12:55:39.391Z,100628.09
2019-02-25T12:58:08.372Z,100623.91
2019-02-25T13:00:37.023Z,100626.73
2019-02-25T13:03:05.774Z,100629.14
2019-02-25T13:05:34.659Z,100619.15
2019-02-25T13:08:03.636Z,100621.41
2019-02-25T13:10:32.605Z,100615.20
2019-02-25T13:13:01.764Z,100614.61
2019-02-25T13:15:30.419Z,100619.67
2019-02-25T13:18:00.185Z,100618.92
2019-02-25T13:20:29.189Z,100622.18
2019-02-25T13:22:58.101Z,100616.66
2019-02-25T13:25:26.868Z,100622.03
2019-02-25T13:27:56.934Z,100611.84
2019-02-25T13:30:25.937Z,100613.16
2019-02-25T13:32:54.888Z,100613.78
2019-02-25T13:35:23.535Z,100601.49
2019-02-25T13:37:52.445Z,100600.77
2019-02-25T13:40:21.172Z,100593.45
2019-02-25T13:42:50.620Z,100596.92
2019-02-25T13:45:19.372Z,100596.92
2019-02-25T13:47:48.094Z,100596.28
2019-02-25T13:50:16.898Z,100589.19
2019-02-25T13:52:48.489Z,100598.28
2019-02-25T13:55:16.514Z,100597.68
2019-02-25T13:57:45.344Z,100598.41
2019-02-25T14:00:16.737Z,100606.48
2019-02-25T14:02:46.070Z,100596.30
2019-02-25T14:05:15.491Z,100591.19
2019-02-25T14:07:44.537Z,100599.02
2019-02-25T14:10:13.264Z,100596.73
2019-02-25T14:12:42.231Z,100597.49
2019-02-25T14:15:12.506Z,100599.48
2019-02-25T14:17:41.265Z,100603.16
2019-02-25T14:20:12.812Z,100605.28
2019-02-25T14:22:41.765Z,100606.10
2019-02-25T14:25:12.540Z,100603.87
2019-02-25T14:27:41.453Z,100594.28
2019-02-25T14:30:13.852Z,100592.44
2019-02-25T14:32:42.903Z,100601.80
2019-02-25T14:35:11.950Z,100601.09
2019-02-25T14:37:40.915Z,100598.52
2019-02-25T14:40:14.528Z,100597.41
2019-02-25T14:42:44.601Z,100595.91
2019-02-25T14:45:14.742Z,100592.98
2019-02-25T14:47:44.528Z,100588.33
2019-02-25T14:50:15.916Z,100592.72
2019-02-25T14:52:44.935Z,100589.27
2019-02-25T14:55:14.945Z,100595.59
2019-02-25T14:57:44.485Z,100593.25
2019-02-25T15:00:17.292Z,100597.17
2019-02-25T15:02:48.032Z,100602.89
2019-02-25T15:05:17.301Z,100604.14
2019-02-25T15:07:48.715Z,100610.03
2019-02-25T15:10:18.241Z,100605.41
2019-02-25T15:12:47.029Z,100605.12
2019-02-25T15:15:16.559Z,100607.50
2019-02-25T15:17:46.115Z,100604.30
2019-02-25T15:20:16.938Z,100602.22
2019-02-25T15:22:47.023Z,100596.96
2019-02-25T15:25:16.494Z,100593.56
2019-02-25T15:27:45.759Z,100589.07
2019-02-25T15:30:18.602Z,100597.41
2019-02-25T15:32:55.545Z,100591.01
2019-02-25T15:35:18.700Z,100590.44
2019-02-25T15:37:48.541Z,100590.24
2019-02-25T15:40:20.420Z,100587.77
2019-02-25T15:43:05.911Z,100584.95
2019-02-25T15:45:38.301Z,100595.09
2019-02-25T15:48:13.026Z,100583.45
2019-02-25T15:50:44.089Z,100583.89
2019-02-25T15:53:15.949Z,100571.64
2019-02-25T15:55:43.733Z,100582.28
2019-02-25T15:58:13.129Z,100576.00
2019-02-25T16:00:42.220Z,100578.52
2019-02-25T16:03:11.689Z,100578.92
2019-02-25T16:05:41.797Z,100573.72
2019-02-25T16:08:16.207Z,100573.72
2019-02-25T16:10:43.122Z,100316.24
2019-02-25T16:13:14.285Z,100567.81
2019-02-25T16:15:42.740Z,100565.73
2019-02-25T16:18:13.596Z,100572.80
2019-02-25T16:20:45.919Z,100573.00
2019-02-25T16:23:13.300Z,100568.58
2019-02-25T16:25:52.632Z,100570.00
2019-02-25T16:28:21.425Z,100569.64
2019-02-25T16:30:51.337Z,100567.27
2019-02-25T16:33:23.754Z,100574.33
2019-02-25T16:35:52.888Z,100576.33
2019-02-25T16:38:23.454Z,100571.22
2019-02-25T16:40:54.644Z,100578.23
2019-02-25T16:43:22.595Z,100585.77
2019-02-25T16:45:51.850Z,100579.84
2019-02-25T16:48:24.218Z,100582.34
2019-02-25T16:50:51.513Z,100583.77
2019-02-25T16:53:20.525Z,100583.57
2019-02-25T16:55:51.392Z,100575.43
2019-02-25T16:58:20.221Z,100578.88
2019-02-25T17:00:49.008Z,100576.26
2019-02-25T17:03:18.344Z,100585.55
2019-02-25T17:05:48.539Z,100581.70
2019-02-25T17:08:21.355Z,100583.33
2019-02-25T17:10:51.812Z,100585.55
2019-02-25T17:13:20.748Z,100581.52
2019-02-25T17:15:49.420Z,100587.95
2019-02-25T17:18:18.112Z,100581.68
2019-02-25T17:20:49.714Z,100586.11
2019-02-25T17:23:18.176Z,100580.67
2019-02-25T17:25:47.113Z,100585.35
2019-02-25T17:28:17.542Z,100580.44
2019-02-25T17:30:47.472Z,100586.79
2019-02-25T17:33:17.513Z,100583.80
2019-02-25T17:35:47.588Z,100591.55
2019-02-25T17:38:18.198Z,100598.42
2019-02-25T17:40:47.375Z,100595.12
2019-02-25T17:43:17.459Z,100596.50
2019-02-25T17:45:46.508Z,100603.62
2019-02-25T17:48:16.221Z,100606.03
2019-02-25T17:50:45.981Z,100605.22
2019-02-25T17:53:14.900Z,100602.41
2019-02-25T17:55:43.843Z,100600.76
2019-02-25T17:58:13.505Z,100602.94
2019-02-25T18:00:43.905Z,100597.16
2019-02-25T18:03:12.736Z,100602.31
2019-02-25T18:05:43.200Z,100599.02
2019-02-25T18:08:13.304Z,100599.51
2019-02-25T18:10:43.641Z,100600.62
2019-02-25T18:13:13.169Z,100595.06
2019-02-25T18:15:42.640Z,100605.75
2019-02-25T18:18:14.534Z,100599.16
2019-02-25T18:20:42.635Z,100598.52
2019-02-25T18:23:11.577Z,100596.04
2019-02-25T18:25:40.625Z,100596.04
2019-02-25T18:28:10.869Z,100600.35
2019-02-25T18:30:40.382Z,100601.72
2019-02-25T18:33:10.064Z,100611.57
2019-02-25T18:35:41.226Z,100613.72
2019-02-25T18:38:09.753Z,100604.88
2019-02-25T18:40:40.673Z,100595.66
2019-02-25T18:43:09.355Z,100595.66
2019-02-25T18:45:40.261Z,100594.59
2019-02-25T18:48:09.341Z,100598.13
2019-02-25T18:50:39.384Z,100595.38
2019-02-25T18:53:08.628Z,100599.98
2019-02-25T18:55:37.561Z,100599.98
2019-02-25T18:58:09.624Z,100597.30
2019-02-25T19:00:41.897Z,100597.30
2019-02-25T19:03:09.610Z,100597.88
2019-02-25T19:05:38.552Z,100598.11
2019-02-25T19:08:14.933Z,100587.77
2019-02-25T19:10:46.123Z,100587.77
2019-02-25T19:13:15.986Z,100598.52
2019-02-25T19:15:45.904Z,100599.33
2019-02-25T19:18:17.139Z,100596.28
2019-02-25T19:20:46.264Z,100597.09
2019-02-25T19:23:16.588Z,100597.09
2019-02-25T19:25:46.686Z,100597.38
2019-02-25T19:28:18.755Z,100601.18
2019-02-25T19:30:46.356Z,100597.08
2019-02-25T19:33:19.291Z,100594.58
2019-02-25T19:35:45.995Z,100593.77
2019-02-25T19:38:17.617Z,100596.67
2019-02-25T19:40:50.360Z,100588.52
2019-02-25T19:43:18.238Z,100597.30
2019-02-25T19:45:47.010Z,100593.61
2019-02-25T19:48:15.785Z,100592.13
2019-02-25T19:50:51.280Z,100591.41
2019-02-25T19:53:19.445Z,100580.91
2019-02-25T19:55:46.997Z,100581.19
2019-02-25T19:58:16.082Z,100585.22
2019-02-25T20:00:44.768Z,100574.48
2019-02-25T20:03:13.711Z,100575.98
2019-02-25T20:05:44.213Z,100571.84
2019-02-25T20:08:13.787Z,100571.56
2019-02-25T20:10:42.725Z,100570.20
2019-02-25T20:13:11.498Z,100576.16
2019-02-25T20:15:42.367Z,100571.94
2019-02-25T20:18:11.802Z,100573.14
2019-02-25T20:20:43.018Z,100578.02
2019-02-25T20:23:12.094Z,100575.35
2019-02-25T20:25:44.417Z,100564.66
2019-02-25T20:28:11.771Z,100557.92
2019-02-25T20:30:40.721Z,100560.30
2019-02-25T20:33:10.875Z,100563.05
2019-02-25T20:35:39.929Z,100557.70
2019-02-25T20:38:08.633Z,100557.16
2019-02-25T20:40:37.367Z,100553.96
2019-02-25T20:43:06.038Z,100552.52
2019-02-25T20:45:35.489Z,100552.98
2019-02-25T20:48:04.842Z,100552.09
2019-02-25T20:50:33.692Z,100557.66
2019-02-25T20:53:05.779Z,100562.92
2019-02-25T20:55:34.502Z,100566.27
2019-02-25T20:58:04.069Z,100561.16
2019-02-25T21:00:34.938Z,100563.89
2019-02-25T21:03:03.398Z,100559.08
2019-02-25T21:05:32.068Z,100552.65
2019-02-25T21:08:00.989Z,100560.05
2019-02-25T21:10:32.826Z,100558.87
2019-02-25T21:13:02.241Z,100555.61
2019-02-25T21:15:33.319Z,100555.17
2019-02-25T21:18:04.680Z,100551.88
2019-02-25T21:20:32.753Z,100554.62
2019-02-25T21:23:05.298Z,100557.35
2019-02-25T21:25:33.822Z,100551.63
2019-02-25T21:28:04.889Z,100555.01
2019-02-25T21:30:37.089Z,100560.20
2019-02-25T21:33:03.944Z,100556.08
2019-02-25T21:35:36.692Z,100559.74
2019-02-25T21:38:03.293Z,100557.38
2019-02-25T21:40:32.561Z,100563.34
2019-02-25T21:43:01.613Z,100568.22
2019-02-25T21:45:32.400Z,100573.91
2019-02-25T21:48:02.612Z,100573.73
2019-02-25T21:50:34.063Z,100570.05
2019-02-25T21:53:04.850Z,100569.11
2019-02-25T21:55:34.916Z,100557.72
2019-02-25T21:58:05.006Z,100558.57
2019-02-25T22:00:35.732Z,100554.50
2019-02-25T22:03:06.269Z,100551.53
2019-02-25T22:05:34.746Z,100553.84
2019-02-25T22:08:04.776Z,100550.08
2019-02-25T22:10:36.921Z,100550.49
2019-02-25T22:13:08.729Z,100548.59
2019-02-25T22:15:38.278Z,100552.88
2019-02-25T22:18:08.602Z,100551.02
2019-02-25T22:20:39.758Z,100550.34
2019-02-25T22:23:08.032Z,100550.77
2019-02-25T22:25:37.126Z,100549.23
2019-02-25T22:28:07.574Z,100544.59
2019-02-25T22:30:36.491Z,100552.02
2019-02-25T22:33:07.874Z,100555.16
2019-02-25T22:35:37.569Z,100563.41
2019-02-25T22:38:06.460Z,100563.57
2019-02-25T22:40:36.685Z,100565.75
2019-02-25T22:43:06.217Z,100569.71
2019-02-25T22:45:37.313Z,100554.93
2019-02-25T22:48:05.602Z,100547.63
2019-02-25T22:50:36.020Z,100548.89
2019-02-25T22:53:06.753Z,100544.61
2019-02-25T22:55:39.248Z,100533.50
2019-02-25T22:58:10.461Z,100525.85
2019-02-25T23:00:43.050Z,100522.69
2019-02-25T23:03:15.293Z,100514.33
2019-02-25T23:05:45.423Z,100517.91
2019-02-25T23:08:15.448Z,100521.45
2019-02-25T23:10:46.778Z,100519.88
2019-02-25T23:13:14.801Z,100506.66
2019-02-25T23:15:44.721Z,100502.34
2019-02-25T23:18:16.615Z,100501.63
2019-02-25T23:20:44.707Z,100507.32
2019-02-25T23:23:13.683Z,100509.72
2019-02-25T23:25:42.647Z,100497.33
2019-02-25T23:28:11.313Z,100501.08
2019-02-25T23:30:40.282Z,100506.39
2019-02-25T23:33:11.798Z,100507.11
2019-02-25T23:35:42.712Z,100497.78
2019-02-25T23:38:10.633Z,100502.86
2019-02-25T23:40:40.207Z,100504.11
2019-02-25T23:43:11.914Z,100509.48
2019-02-25T23:45:42.135Z,100509.34
2019-02-25T23:48:11.892Z,100508.09
2019-02-25T23:50:40.531Z,100509.61
2019-02-25T23:53:09.537Z,100503.48
2019-02-25T23:55:38.207Z,100495.89
2019-02-25T23:58:10.199Z,100503.55
